Time;durP1;ratioP1;P1;durP2;ratioP2;P2;SDS_P1;SDS_P2;PMS_P1;PMS_P2;Temp;Humidity;BMP_temperature;BMP_pressure;BME280_temperature;BME280_humidity;BME280_pressure;Samples;Min_cycle;Max_cycle;Signal;HPM_P1;HPM_P2
2023/06/30 00:00:22;;;;;;;29.27;19.27;;;;;;;;;;5120214;28;20518;-66
2023/06/30 00:02:48;;;;;;;23.17;18.10;;;;;;;;;;5121277;28;20508;-64
2023/06/30 00:05:15;;;;;;;24.87;17.43;;;;;;;;;;5121933;28;20454;-65
2023/06/30 00:07:42;;;;;;;24.53;18.83;;;;;;;;;;5114155;28;20469;-66
2023/06/30 00:10:09;;;;;;;22.23;17.23;;;;;;;;;;5114856;28;20461;-66
2023/06/30 00:12:35;;;;;;;21.53;15.50;;;;;;;;;;5114541;28;20957;-65
2023/06/30 00:15:02;;;;;;;23.03;15.60;;;;;;;;;;5118808;28;20470;-65
2023/06/30 00:17:30;;;;;;;21.17;14.50;;;;;;;;;;5118091;28;20639;-65
2023/06/30 00:19:58;;;;;;;19.37;15.33;;;;;;;;;;5116945;28;20454;-64
2023/06/30 00:22:25;;;;;;;18.77;13.23;;;;;;;;;;5120939;27;20465;-65
2023/06/30 00:24:54;;;;;;;18.83;12.23;;;;;;;;;;5122363;28;20542;-65
2023/06/30 00:27:21;;;;;;;15.33;11.53;;;;;;;;;;5129054;27;20483;-66
2023/06/30 00:29:47;;;;;;;17.17;12.30;;;;;;;;;;5125059;27;20455;-65
2023/06/30 00:32:13;;;;;;;17.30;11.90;;;;;;;;;;5126766;27;20938;-66
2023/06/30 00:34:41;;;;;;;17.50;12.20;;;;;;;;;;5122549;27;20465;-66
2023/06/30 00:37:08;;;;;;;17.60;12.80;;;;;;;;;;5123021;27;20521;-65
2023/06/30 00:39:34;;;;;;;16.53;12.47;;;;;;;;;;5120345;27;20457;-65
2023/06/30 00:42:02;;;;;;;14.03;11.50;;;;;;;;;;5123705;28;20514;-65
2023/06/30 00:44:28;;;;;;;16.33;12.30;;;;;;;;;;5116514;27;20515;-64
2023/06/30 00:46:54;;;;;;;14.40;9.10;;;;;;;;;;5122937;27;20472;-65
2023/06/30 00:49:21;;;;;;;12.43;9.53;;;;;;;;;;5118057;27;20538;-66
2023/06/30 00:51:49;;;;;;;14.93;9.30;;;;;;;;;;5122584;27;20545;-65
2023/06/30 00:54:15;;;;;;;14.13;8.30;;;;;;;;;;5111609;27;20487;-64
2023/06/30 00:56:41;;;;;;;8.70;7.03;;;;;;;;;;5119767;28;20477;-64
2023/06/30 00:59:08;;;;;;;12.27;6.53;;;;;;;;;;5121307;27;20543;-65
2023/06/30 01:01:38;;;;;;;8.13;5.60;;;;;;;;;;5122749;27;20470;-66
2023/06/30 01:04:09;;;;;;;5.90;4.37;;;;;;;;;;5123586;27;20503;-66
2023/06/30 01:06:39;;;;;;;8.03;3.43;;;;;;;;;;5122770;28;20476;-65
2023/06/30 01:09:11;;;;;;;6.43;3.27;;;;;;;;;;5124470;27;20482;-64
2023/06/30 01:11:38;;;;;;;6.00;3.00;;;;;;;;;;5118871;27;20470;-65
2023/06/30 01:14:06;;;;;;;8.47;3.07;;;;;;;;;;5123259;27;20450;-65
2023/06/30 01:16:33;;;;;;;8.50;2.70;;;;;;;;;;5115454;27;20476;-65
2023/06/30 01:19:01;;;;;;;4.00;2.50;;;;;;;;;;5112480;27;20503;-66
2023/06/30 01:21:29;;;;;;;3.70;2.93;;;;;;;;;;5119698;28;20462;-63
2023/06/30 01:23:58;;;;;;;3.93;2.60;;;;;;;;;;5121996;27;20464;-64
2023/06/30 01:26:26;;;;;;;6.07;2.83;;;;;;;;;;5115630;27;20481;-65
2023/06/30 01:28:53;;;;;;;5.47;2.80;;;;;;;;;;5123795;27;20492;-66
2023/06/30 01:31:19;;;;;;;4.00;2.53;;;;;;;;;;5121942;27;20490;-65
2023/06/30 01:33:46;;;;;;;6.77;2.70;;;;;;;;;;5120874;28;20848;-65
2023/06/30 01:36:12;;;;;;;5.87;2.50;;;;;;;;;;5121777;28;20450;-65
2023/06/30 01:38:39;;;;;;;4.93;2.10;;;;;;;;;;5119276;27;20565;-65
2023/06/30 01:41:08;;;;;;;4.77;2.23;;;;;;;;;;5119142;27;20569;-65
2023/06/30 01:43:36;;;;;;;6.33;2.33;;;;;;;;;;5113928;28;20489;-65
2023/06/30 01:46:03;;;;;;;5.00;2.20;;;;;;;;;;5122529;27;20478;-65
2023/06/30 01:48:29;;;;;;;3.43;2.13;;;;;;;;;;5122030;27;20856;-64
2023/06/30 01:50:56;;;;;;;5.37;2.17;;;;;;;;;;5116591;28;20962;-66
2023/06/30 01:53:24;;;;;;;2.70;1.90;;;;;;;;;;5116449;27;20482;-65
2023/06/30 01:55:54;;;;;;;4.47;2.13;;;;;;;;;;5112135;27;20455;-65
2023/06/30 01:58:20;;;;;;;2.40;2.20;;;;;;;;;;5117015;28;20449;-64
2023/06/30 02:00:48;;;;;;;3.93;2.20;;;;;;;;;;5121856;27;20489;-65
2023/06/30 02:03:14;;;;;;;3.30;1.93;;;;;;;;;;5123092;27;20808;-67
2023/06/30 02:05:41;;;;;;;4.10;2.20;;;;;;;;;;5121266;27;20496;-66
2023/06/30 02:08:07;;;;;;;5.13;2.00;;;;;;;;;;5118653;27;20458;-65
2023/06/30 02:10:33;;;;;;;2.90;2.43;;;;;;;;;;5123004;27;20453;-66
2023/06/30 02:13:00;;;;;;;4.53;2.70;;;;;;;;;;5119645;27;21111;-66
2023/06/30 02:15:26;;;;;;;5.90;2.03;;;;;;;;;;5111880;27;20518;-66
2023/06/30 02:17:54;;;;;;;3.07;1.97;;;;;;;;;;5120443;28;20529;-66
2023/06/30 02:20:20;;;;;;;2.63;1.90;;;;;;;;;;5117213;28;20478;-66
2023/06/30 02:22:47;;;;;;;5.60;2.00;;;;;;;;;;5112476;27;20529;-65
2023/06/30 02:25:13;;;;;;;4.37;2.20;;;;;;;;;;5119161;28;20514;-66
2023/06/30 02:27:39;;;;;;;4.00;2.27;;;;;;;;;;5120287;28;20452;-65
2023/06/30 02:30:08;;;;;;;2.47;1.90;;;;;;;;;;5124283;27;20540;-64
2023/06/30 02:32:37;;;;;;;4.07;2.20;;;;;;;;;;5121433;27;20530;-65
2023/06/30 02:35:12;;;;;;;5.07;2.37;;;;;;;;;;5121291;28;20454;-65
2023/06/30 02:37:39;;;;;;;2.60;2.40;;;;;;;;;;5118534;27;20458;-65
2023/06/30 02:40:07;;;;;;;3.20;2.23;;;;;;;;;;5118455;27;20907;-65
2023/06/30 02:42:34;;;;;;;4.87;3.27;;;;;;;;;;5121468;28;20950;-66
2023/06/30 02:45:00;;;;;;;7.97;2.90;;;;;;;;;;5117395;28;20541;-65
2023/06/30 02:47:26;;;;;;;4.03;2.73;;;;;;;;;;5120636;27;20478;-66
2023/06/30 02:49:53;;;;;;;3.03;2.60;;;;;;;;;;5120293;27;20522;-65
2023/06/30 02:52:21;;;;;;;5.03;2.70;;;;;;;;;;5112115;28;20528;-65
2023/06/30 02:54:47;;;;;;;4.60;3.23;;;;;;;;;;5122517;27;20453;-65
2023/06/30 02:57:14;;;;;;;8.00;3.47;;;;;;;;;;5115421;28;20446;-65
2023/06/30 02:59:40;;;;;;;7.77;3.63;;;;;;;;;;5122021;27;20545;-64
2023/06/30 03:02:06;;;;;;;4.17;3.70;;;;;;;;;;5114781;27;20481;-65
2023/06/30 03:04:33;;;;;;;4.70;3.87;;;;;;;;;;5122756;27;20449;-65
2023/06/30 03:06:59;;;;;;;8.50;3.47;;;;;;;;;;5119778;27;20537;-66
2023/06/30 03:09:27;;;;;;;5.77;3.37;;;;;;;;;;5122997;27;20591;-65
2023/06/30 03:11:53;;;;;;;5.57;3.50;;;;;;;;;;5123481;27;20490;-65
2023/06/30 03:14:19;;;;;;;6.53;4.10;;;;;;;;;;5120350;27;20514;-65
2023/06/30 03:16:46;;;;;;;7.73;4.33;;;;;;;;;;5116319;28;20455;-65
2023/06/30 03:19:14;;;;;;;4.87;3.67;;;;;;;;;;5118091;27;20860;-66
2023/06/30 03:21:40;;;;;;;5.10;4.60;;;;;;;;;;5115778;28;20468;-65
2023/06/30 03:24:07;;;;;;;6.10;5.20;;;;;;;;;;5114502;28;20489;-65
2023/06/30 03:26:34;;;;;;;4.90;4.50;;;;;;;;;;5120564;28;20478;-65
2023/06/30 03:29:01;;;;;;;7.17;4.80;;;;;;;;;;5108811;28;20533;-65
2023/06/30 03:31:27;;;;;;;7.03;4.27;;;;;;;;;;5120609;28;20486;-66
2023/06/30 03:33:53;;;;;;;4.80;3.50;;;;;;;;;;5120064;28;20636;-64
2023/06/30 03:36:20;;;;;;;6.50;4.03;;;;;;;;;;5114848;28;20561;-64
2023/06/30 03:38:46;;;;;;;6.50;4.00;;;;;;;;;;5119748;28;20525;-63
2023/06/30 03:41:12;;;;;;;8.70;3.90;;;;;;;;;;5120379;28;20849;-64
2023/06/30 03:43:40;;;;;;;6.03;3.93;;;;;;;;;;5119549;28;20529;-64
2023/06/30 03:46:07;;;;;;;5.07;3.70;;;;;;;;;;5126547;28;21030;-65
2023/06/30 03:48:33;;;;;;;5.70;4.20;;;;;;;;;;5117704;28;20471;-65
2023/06/30 03:50:59;;;;;;;9.23;4.70;;;;;;;;;;5112078;28;20446;-65
2023/06/30 03:53:26;;;;;;;4.20;3.53;;;;;;;;;;5120720;28;20580;-66
2023/06/30 03:55:52;;;;;;;9.20;4.60;;;;;;;;;;5122605;28;20465;-65
2023/06/30 03:58:18;;;;;;;6.80;5.07;;;;;;;;;;5124546;27;20477;-65
2023/06/30 04:00:46;;;;;;;11.77;5.87;;;;;;;;;;5123497;28;20513;-65
2023/06/30 04:03:12;;;;;;;7.67;5.80;;;;;;;;;;5131709;27;20477;-66
2023/06/30 04:05:39;;;;;;;11.10;6.40;;;;;;;;;;5122867;27;21033;-65
2023/06/30 04:08:05;;;;;;;6.83;6.13;;;;;;;;;;5112659;27;20486;-66
2023/06/30 04:10:32;;;;;;;12.57;6.70;;;;;;;;;;5117848;28;20459;-65
2023/06/30 04:12:58;;;;;;;7.40;6.37;;;;;;;;;;5119245;27;20477;-66
2023/06/30 04:15:24;;;;;;;12.20;6.70;;;;;;;;;;5114571;27;20521;-66
2023/06/30 04:17:52;;;;;;;8.93;6.63;;;;;;;;;;5123625;28;20457;-67
2023/06/30 04:20:19;;;;;;;8.40;7.60;;;;;;;;;;5118105;28;20499;-65
2023/06/30 04:22:45;;;;;;;10.03;8.43;;;;;;;;;;5120922;27;20446;-65
2023/06/30 04:25:12;;;;;;;10.60;8.80;;;;;;;;;;5123820;27;20453;-65
2023/06/30 04:27:40;;;;;;;9.67;7.80;;;;;;;;;;5124670;27;20457;-65
2023/06/30 04:30:07;;;;;;;9.77;8.40;;;;;;;;;;5118300;27;20511;-65
2023/06/30 04:32:34;;;;;;;11.87;8.50;;;;;;;;;;5123915;27;20470;-64
2023/06/30 04:35:01;;;;;;;10.87;9.13;;;;;;;;;;5120998;27;21043;-64
2023/06/30 04:37:28;;;;;;;11.30;9.40;;;;;;;;;;5112064;27;20487;-66
2023/06/30 04:39:55;;;;;;;11.20;9.83;;;;;;;;;;5112757;27;20541;-65
2023/06/30 04:42:21;;;;;;;14.80;10.07;;;;;;;;;;5120574;27;20583;-65
2023/06/30 04:44:48;;;;;;;12.50;11.20;;;;;;;;;;5113401;27;20521;-66
2023/06/30 04:47:16;;;;;;;13.70;11.93;;;;;;;;;;5127971;27;20473;-65
2023/06/30 04:49:42;;;;;;;19.17;14.10;;;;;;;;;;5114885;27;20451;-65
2023/06/30 04:52:10;;;;;;;17.27;13.47;;;;;;;;;;5120975;28;20447;-63
2023/06/30 04:54:37;;;;;;;20.53;15.30;;;;;;;;;;5111995;27;20482;-65
2023/06/30 04:57:04;;;;;;;18.00;15.00;;;;;;;;;;5121101;28;20595;-64
2023/06/30 04:59:31;;;;;;;23.40;14.33;;;;;;;;;;5132123;27;20461;-65
2023/06/30 05:01:57;;;;;;;17.23;14.50;;;;;;;;;;5125012;27;20502;-65
2023/06/30 05:04:24;;;;;;;18.90;16.30;;;;;;;;;;5107888;28;21000;-64
2023/06/30 05:06:50;;;;;;;21.20;15.77;;;;;;;;;;5113948;28;20549;-64
2023/06/30 05:09:18;;;;;;;23.43;18.50;;;;;;;;;;5115797;27;20490;-65
2023/06/30 05:11:45;;;;;;;27.30;19.33;;;;;;;;;;5119881;28;20515;-65
2023/06/30 05:14:11;;;;;;;23.20;18.70;;;;;;;;;;5121995;28;20470;-65
2023/06/30 05:16:37;;;;;;;27.10;19.27;;;;;;;;;;5129002;27;20446;-64
2023/06/30 05:19:04;;;;;;;19.97;17.40;;;;;;;;;;5122970;27;20457;-65
2023/06/30 05:21:30;;;;;;;24.53;18.13;;;;;;;;;;5121548;27;20443;-65
2023/06/30 05:23:57;;;;;;;24.77;19.40;;;;;;;;;;5135337;27;20484;-65
2023/06/30 05:26:24;;;;;;;24.53;19.33;;;;;;;;;;5126267;27;20447;-65
2023/06/30 05:28:51;;;;;;;26.40;19.07;;;;;;;;;;5113294;28;20470;-66
2023/06/30 05:31:17;;;;;;;25.47;19.60;;;;;;;;;;5116078;28;20486;-65
2023/06/30 05:33:44;;;;;;;28.53;21.00;;;;;;;;;;5125703;27;20497;-66
2023/06/30 05:36:10;;;;;;;30.13;20.10;;;;;;;;;;5106831;27;20499;-65
2023/06/30 05:38:36;;;;;;;24.73;19.90;;;;;;;;;;5120908;28;20490;-66
2023/06/30 05:41:03;;;;;;;32.30;22.23;;;;;;;;;;5123922;27;20462;-65
2023/06/30 05:43:30;;;;;;;29.30;21.97;;;;;;;;;;5121439;27;20500;-65
2023/06/30 05:45:57;;;;;;;28.63;21.90;;;;;;;;;;5111588;28;20471;-66
2023/06/30 05:48:23;;;;;;;25.57;19.37;;;;;;;;;;5114293;27;20505;-64
2023/06/30 05:50:50;;;;;;;29.17;22.17;;;;;;;;;;5123454;27;20623;-66
2023/06/30 05:53:16;;;;;;;25.93;20.50;;;;;;;;;;5124057;27;20803;-64
2023/06/30 05:55:42;;;;;;;25.40;21.33;;;;;;;;;;5114741;27;20543;-65
2023/06/30 05:58:09;;;;;;;27.70;22.03;;;;;;;;;;5105617;27;21554;-66
2023/06/30 06:00:37;;;;;;;27.63;21.83;;;;;;;;;;5115606;28;20506;-65
2023/06/30 06:03:03;;;;;;;24.83;20.03;;;;;;;;;;5132130;27;20966;-66
2023/06/30 06:05:29;;;;;;;27.03;20.83;;;;;;;;;;5121674;27;20577;-65
2023/06/30 06:07:56;;;;;;;25.00;19.97;;;;;;;;;;5118227;27;20458;-66
2023/06/30 06:10:22;;;;;;;24.70;20.87;;;;;;;;;;5109716;27;20459;-64
2023/06/30 06:12:52;;;;;;;26.93;22.70;;;;;;;;;;5113545;27;20483;-65
2023/06/30 06:15:18;;;;;;;25.03;20.60;;;;;;;;;;5125943;27;20536;-65
2023/06/30 06:17:46;;;;;;;25.30;19.37;;;;;;;;;;5121945;27;20546;-66
2023/06/30 06:20:12;;;;;;;26.30;18.67;;;;;;;;;;5112835;27;20513;-65
2023/06/30 06:22:39;;;;;;;26.10;17.30;;;;;;;;;;5108910;28;20457;-65
2023/06/30 06:25:07;;;;;;;20.60;17.47;;;;;;;;;;5130414;27;20437;-65
2023/06/30 06:27:34;;;;;;;23.67;16.77;;;;;;;;;;5113876;27;20462;-65
2023/06/30 06:30:00;;;;;;;25.63;16.37;;;;;;;;;;5109237;28;20458;-65
2023/06/30 06:32:26;;;;;;;20.30;17.33;;;;;;;;;;5129298;27;20450;-66
2023/06/30 06:34:54;;;;;;;22.63;15.83;;;;;;;;;;5111851;27;20497;-65
2023/06/30 06:37:21;;;;;;;21.63;16.23;;;;;;;;;;5107879;28;20541;-66
2023/06/30 06:39:49;;;;;;;18.97;15.83;;;;;;;;;;5118524;27;20683;-66
2023/06/30 06:42:15;;;;;;;24.63;16.67;;;;;;;;;;5110710;28;20447;-66
2023/06/30 06:44:42;;;;;;;24.97;16.47;;;;;;;;;;5120035;28;20618;-66
2023/06/30 06:47:26;;;;;;;17.10;15.30;;;;;;;;;;5119771;28;20478;-66
2023/06/30 06:49:53;;;;;;;20.30;14.17;;;;;;;;;;5117721;27;20517;-66
2023/06/30 06:52:20;;;;;;;15.00;12.43;;;;;;;;;;5120336;27;20531;-66
2023/06/30 06:54:47;;;;;;;15.57;11.87;;;;;;;;;;5109033;27;20554;-65
2023/06/30 06:57:13;;;;;;;11.40;10.13;;;;;;;;;;5118000;27;20538;-65
2023/06/30 06:59:39;;;;;;;14.67;10.37;;;;;;;;;;5123140;27;20840;-65
2023/06/30 07:02:06;;;;;;;16.30;11.60;;;;;;;;;;5114653;27;20464;-66
2023/06/30 07:04:32;;;;;;;14.20;10.97;;;;;;;;;;5107006;28;20498;-66
2023/06/30 07:06:59;;;;;;;16.00;11.07;;;;;;;;;;5115965;27;20583;-65
2023/06/30 07:09:26;;;;;;;12.73;10.17;;;;;;;;;;5115101;28;20486;-66
2023/06/30 07:11:53;;;;;;;10.50;9.10;;;;;;;;;;5123666;27;20524;-66
2023/06/30 07:14:20;;;;;;;11.53;10.10;;;;;;;;;;5112518;28;20497;-65
2023/06/30 07:16:46;;;;;;;15.13;7.57;;;;;;;;;;5117411;27;20454;-65
2023/06/30 07:19:12;;;;;;;10.10;7.43;;;;;;;;;;5117336;27;20485;-67
2023/06/30 07:21:39;;;;;;;8.70;7.90;;;;;;;;;;5122068;27;20541;-66
2023/06/30 07:24:05;;;;;;;14.03;7.73;;;;;;;;;;5124694;27;20981;-66
2023/06/30 07:26:33;;;;;;;8.37;7.43;;;;;;;;;;5103109;27;20474;-66
2023/06/30 07:29:00;;;;;;;10.23;7.77;;;;;;;;;;5105457;27;20475;-66
2023/06/30 07:31:30;;;;;;;8.80;7.70;;;;;;;;;;5109823;28;20549;-66
2023/06/30 07:33:57;;;;;;;8.67;7.90;;;;;;;;;;5119287;28;20481;-65
2023/06/30 07:36:23;;;;;;;12.80;8.27;;;;;;;;;;5116241;27;20450;-66
2023/06/30 07:38:50;;;;;;;8.50;7.70;;;;;;;;;;5126686;27;20500;-66
2023/06/30 07:41:16;;;;;;;10.87;6.90;;;;;;;;;;5111622;28;20526;-66
2023/06/30 07:43:44;;;;;;;11.20;7.53;;;;;;;;;;5122854;27;20523;-64
2023/06/30 07:46:10;;;;;;;9.90;6.17;;;;;;;;;;5122550;28;20540;-66
2023/06/30 07:48:37;;;;;;;10.20;6.63;;;;;;;;;;5119400;28;20526;-66
2023/06/30 07:51:04;;;;;;;7.07;6.10;;;;;;;;;;5120839;28;20490;-66
2023/06/30 07:53:30;;;;;;;9.67;6.80;;;;;;;;;;5112128;28;21061;-66
2023/06/30 07:55:56;;;;;;;5.60;5.10;;;;;;;;;;5109753;28;20517;-66
2023/06/30 07:58:23;;;;;;;5.07;4.23;;;;;;;;;;5113454;28;20451;-65
2023/06/30 08:00:51;;;;;;;6.73;4.43;;;;;;;;;;5120689;28;20473;-66
2023/06/30 08:03:17;;;;;;;6.03;3.60;;;;;;;;;;5123308;28;20482;-66
2023/06/30 08:05:44;;;;;;;6.27;3.50;;;;;;;;;;5121295;28;20862;-66
2023/06/30 08:08:12;;;;;;;5.53;3.60;;;;;;;;;;5115937;28;20895;-66
2023/06/30 08:10:38;;;;;;;5.30;4.60;;;;;;;;;;5118558;28;20462;-66
2023/06/30 08:13:04;;;;;;;4.93;4.43;;;;;;;;;;5118595;28;20453;-64
2023/06/30 08:15:31;;;;;;;5.40;4.60;;;;;;;;;;5123596;28;21088;-66
2023/06/30 08:17:58;;;;;;;7.60;5.03;;;;;;;;;;5107528;28;20530;-66
2023/06/30 08:20:25;;;;;;;5.60;4.33;;;;;;;;;;5118122;28;20462;-66
2023/06/30 08:22:51;;;;;;;8.03;4.60;;;;;;;;;;5113860;28;20896;-66
2023/06/30 08:25:20;;;;;;;6.63;4.47;;;;;;;;;;5118731;28;20442;-65
2023/06/30 08:27:47;;;;;;;5.60;5.00;;;;;;;;;;5116510;28;20482;-66
2023/06/30 08:30:13;;;;;;;5.43;4.93;;;;;;;;;;5114416;28;20473;-66
2023/06/30 08:32:39;;;;;;;8.00;5.33;;;;;;;;;;5119105;28;20476;-66
2023/06/30 08:35:08;;;;;;;7.67;4.43;;;;;;;;;;5116907;28;20530;-66
2023/06/30 08:37:34;;;;;;;4.70;4.30;;;;;;;;;;5116450;28;20513;-66
2023/06/30 08:40:00;;;;;;;6.17;4.77;;;;;;;;;;5114194;28;20529;-66
2023/06/30 08:42:29;;;;;;;9.43;4.30;;;;;;;;;;5129407;27;20480;-66
2023/06/30 08:44:55;;;;;;;6.00;3.40;;;;;;;;;;5113718;27;20585;-65
2023/06/30 08:47:25;;;;;;;6.50;3.13;;;;;;;;;;5111575;27;20468;-66
2023/06/30 08:49:52;;;;;;;6.57;3.43;;;;;;;;;;5121360;27;20894;-66
2023/06/30 08:52:20;;;;;;;6.13;3.10;;;;;;;;;;5122075;28;20452;-66
2023/06/30 08:54:46;;;;;;;7.23;3.63;;;;;;;;;;5120083;27;20513;-66
2023/06/30 08:57:15;;;;;;;6.77;3.00;;;;;;;;;;5121407;27;20457;-66
2023/06/30 08:59:41;;;;;;;6.63;2.77;;;;;;;;;;5114613;28;20476;-67
2023/06/30 09:02:08;;;;;;;5.30;2.53;;;;;;;;;;5115497;27;20466;-66
2023/06/30 09:04:36;;;;;;;5.07;2.60;;;;;;;;;;5115465;27;20530;-65
2023/06/30 09:07:05;;;;;;;6.30;3.23;;;;;;;;;;5115720;28;20447;-66
2023/06/30 09:09:35;;;;;;;4.70;2.27;;;;;;;;;;5116244;27;20536;-67
2023/06/30 09:12:02;;;;;;;3.60;2.07;;;;;;;;;;5118901;27;20454;-65
2023/06/30 09:14:33;;;;;;;8.10;2.70;;;;;;;;;;5116351;27;20494;-65
2023/06/30 09:16:59;;;;;;;3.00;1.63;;;;;;;;;;5123294;27;20450;-66
2023/06/30 09:19:28;;;;;;;4.17;2.40;;;;;;;;;;5116492;27;20762;-66
2023/06/30 09:21:56;;;;;;;5.80;2.50;;;;;;;;;;5116604;28;20447;-66
2023/06/30 09:24:23;;;;;;;4.93;2.70;;;;;;;;;;5120903;28;20450;-66
2023/06/30 09:26:50;;;;;;;6.03;2.70;;;;;;;;;;5116595;27;20553;-66
2023/06/30 09:29:18;;;;;;;4.90;2.80;;;;;;;;;;5123917;27;20971;-66
2023/06/30 09:31:44;;;;;;;3.63;2.10;;;;;;;;;;5119047;28;20482;-66
2023/06/30 09:34:11;;;;;;;4.00;1.97;;;;;;;;;;5117597;27;20518;-66
2023/06/30 09:36:38;;;;;;;3.80;1.50;;;;;;;;;;5121933;27;20536;-65
2023/06/30 09:39:06;;;;;;;6.63;1.90;;;;;;;;;;5121218;27;20458;-66
2023/06/30 09:41:33;;;;;;;3.97;1.80;;;;;;;;;;5121234;27;20489;-67
2023/06/30 09:44:01;;;;;;;2.90;1.60;;;;;;;;;;5122958;27;20836;-66
2023/06/30 09:46:27;;;;;;;2.70;1.50;;;;;;;;;;5118268;28;20503;-67
2023/06/30 09:48:57;;;;;;;4.20;2.30;;;;;;;;;;5120226;27;20488;-66
2023/06/30 09:51:23;;;;;;;3.80;1.77;;;;;;;;;;5122400;27;20510;-67
2023/06/30 09:53:51;;;;;;;2.83;1.97;;;;;;;;;;5118458;28;20621;-67
2023/06/30 09:56:19;;;;;;;4.27;2.17;;;;;;;;;;5122468;27;20470;-64
2023/06/30 09:58:46;;;;;;;3.47;1.50;;;;;;;;;;5126055;27;20489;-67
2023/06/30 10:01:18;;;;;;;5.27;1.70;;;;;;;;;;5118793;27;20536;-66
2023/06/30 10:03:47;;;;;;;4.63;1.27;;;;;;;;;;5115299;27;20920;-66
2023/06/30 10:06:20;;;;;;;4.60;1.50;;;;;;;;;;5120419;28;20446;-66
2023/06/30 10:08:46;;;;;;;3.97;1.43;;;;;;;;;;5122427;27;20484;-66
2023/06/30 10:11:13;;;;;;;5.50;1.50;;;;;;;;;;5121744;27;20549;-66
2023/06/30 10:13:41;;;;;;;3.93;1.30;;;;;;;;;;5119989;27;20505;-65
2023/06/30 10:16:07;;;;;;;4.60;1.70;;;;;;;;;;5114548;27;20543;-66
2023/06/30 10:18:38;;;;;;;2.97;1.90;;;;;;;;;;5126198;27;20468;-66
2023/06/30 10:21:05;;;;;;;5.03;1.63;;;;;;;;;;5121498;27;20454;-66
2023/06/30 10:23:35;;;;;;;3.70;1.40;;;;;;;;;;5122136;27;20484;-65
2023/06/30 10:26:04;;;;;;;2.10;1.47;;;;;;;;;;5111982;27;20458;-66
2023/06/30 10:28:31;;;;;;;5.27;1.60;;;;;;;;;;5127296;27;20451;-66
2023/06/30 10:30:57;;;;;;;2.90;1.60;;;;;;;;;;5119855;27;20462;-64
2023/06/30 10:33:24;;;;;;;5.63;1.43;;;;;;;;;;5124165;27;20473;-65
2023/06/30 10:35:51;;;;;;;5.83;1.43;;;;;;;;;;5131147;27;20514;-65
2023/06/30 10:38:18;;;;;;;4.97;1.50;;;;;;;;;;5120545;27;20550;-64
2023/06/30 10:40:45;;;;;;;4.53;1.80;;;;;;;;;;5116010;28;20541;-66
2023/06/30 10:43:13;;;;;;;4.63;1.90;;;;;;;;;;5121561;27;20970;-66
2023/06/30 10:45:54;;;;;;;5.63;2.13;;;;;;;;;;5114176;28;20450;-66
2023/06/30 10:48:21;;;;;;;5.30;1.40;;;;;;;;;;5111700;28;20446;-63
2023/06/30 10:50:48;;;;;;;4.53;1.10;;;;;;;;;;5118885;28;20459;-67
2023/06/30 10:53:18;;;;;;;3.10;1.47;;;;;;;;;;5114689;28;20511;-64
2023/06/30 10:55:45;;;;;;;2.87;1.70;;;;;;;;;;5113599;28;20551;-64
2023/06/30 10:58:12;;;;;;;4.43;1.83;;;;;;;;;;5117369;28;20443;-64
2023/06/30 11:00:38;;;;;;;2.27;1.20;;;;;;;;;;5119216;28;20471;-66
2023/06/30 11:03:06;;;;;;;5.13;1.63;;;;;;;;;;5110770;27;20478;-63
2023/06/30 11:05:33;;;;;;;5.40;1.40;;;;;;;;;;5105520;27;20454;-65
2023/06/30 11:08:06;;;;;;;2.87;1.37;;;;;;;;;;5111302;28;20458;-65
2023/06/30 11:10:37;;;;;;;2.33;1.20;;;;;;;;;;5104417;27;20461;-65
2023/06/30 11:13:05;;;;;;;3.27;1.40;;;;;;;;;;5110339;28;20450;-65
2023/06/30 11:15:39;;;;;;;2.80;1.47;;;;;;;;;;5113150;27;20479;-69
2023/06/30 11:18:06;;;;;;;3.67;1.63;;;;;;;;;;5113617;28;20453;-67
2023/06/30 11:20:33;;;;;;;3.80;1.53;;;;;;;;;;5119745;27;20451;-66
2023/06/30 11:23:01;;;;;;;2.83;1.40;;;;;;;;;;5119852;27;20461;-65
2023/06/30 11:25:28;;;;;;;6.40;1.90;;;;;;;;;;5105815;27;20473;-66
2023/06/30 11:27:57;;;;;;;3.53;1.40;;;;;;;;;;5119285;28;20450;-66
2023/06/30 11:30:23;;;;;;;3.37;1.27;;;;;;;;;;5119650;27;20973;-67
2023/06/30 11:32:54;;;;;;;3.97;1.10;;;;;;;;;;5121113;28;20481;-67
2023/06/30 11:35:20;;;;;;;1.43;1.20;;;;;;;;;;5110349;28;20470;-64
2023/06/30 11:37:50;;;;;;;4.77;1.23;;;;;;;;;;5116172;28;20454;-65
2023/06/30 11:40:16;;;;;;;4.90;2.00;;;;;;;;;;5105016;28;20515;-66
2023/06/30 11:42:43;;;;;;;2.93;1.47;;;;;;;;;;5119351;28;20521;-66
2023/06/30 11:45:16;;;;;;;5.87;1.57;;;;;;;;;;5116190;28;20988;-66
2023/06/30 11:47:45;;;;;;;3.50;1.97;;;;;;;;;;5111441;28;20457;-65
2023/06/30 11:50:12;;;;;;;3.97;1.50;;;;;;;;;;5119003;28;20515;-65
2023/06/30 11:52:39;;;;;;;3.20;1.63;;;;;;;;;;5117870;28;20449;-66
2023/06/30 11:55:06;;;;;;;5.23;1.30;;;;;;;;;;5115766;28;20493;-64
2023/06/30 11:57:36;;;;;;;3.63;1.63;;;;;;;;;;5118218;28;20476;-66
2023/06/30 12:00:17;;;;;;;2.87;1.57;;;;;;;;;;5113065;28;20463;-65
2023/06/30 12:02:46;;;;;;;2.17;1.60;;;;;;;;;;5113859;28;21032;-66
2023/06/30 12:05:14;;;;;;;5.20;1.73;;;;;;;;;;5107087;28;20807;-65
2023/06/30 12:07:41;;;;;;;3.50;1.80;;;;;;;;;;5117678;28;20477;-65
2023/06/30 12:10:10;;;;;;;3.70;1.50;;;;;;;;;;5111560;28;20458;-65
2023/06/30 12:12:37;;;;;;;3.07;1.63;;;;;;;;;;5119116;28;20474;-65
2023/06/30 12:15:04;;;;;;;4.30;2.00;;;;;;;;;;5120914;28;20482;-64
2023/06/30 12:17:30;;;;;;;7.03;2.27;;;;;;;;;;5123083;27;20442;-64
2023/06/30 12:19:58;;;;;;;3.63;2.10;;;;;;;;;;5123138;27;20527;-65
2023/06/30 12:22:27;;;;;;;2.67;1.80;;;;;;;;;;5130450;27;20544;-63
2023/06/30 12:24:56;;;;;;;3.03;1.70;;;;;;;;;;5122692;28;20450;-63
2023/06/30 12:27:25;;;;;;;3.67;2.27;;;;;;;;;;5108881;28;20540;-65
2023/06/30 12:29:51;;;;;;;4.73;2.13;;;;;;;;;;5120816;28;20859;-66
2023/06/30 12:32:18;;;;;;;1.83;1.53;;;;;;;;;;5112998;28;20494;-65
2023/06/30 12:34:45;;;;;;;3.10;1.63;;;;;;;;;;5122600;27;20504;-64
2023/06/30 12:37:14;;;;;;;2.17;1.30;;;;;;;;;;5116936;27;20463;-65
2023/06/30 12:39:41;;;;;;;3.90;1.80;;;;;;;;;;5114061;27;20455;-63
2023/06/30 12:42:08;;;;;;;2.60;1.90;;;;;;;;;;5115277;27;20454;-64
2023/06/30 12:44:34;;;;;;;3.40;2.23;;;;;;;;;;5120729;27;20485;-64
2023/06/30 12:47:01;;;;;;;4.20;2.70;;;;;;;;;;5119488;27;20508;-64
2023/06/30 12:49:28;;;;;;;3.00;2.10;;;;;;;;;;5119673;28;21034;-65
2023/06/30 12:51:55;;;;;;;6.73;2.23;;;;;;;;;;5116641;28;20810;-65
2023/06/30 12:54:23;;;;;;;3.00;2.70;;;;;;;;;;5119902;27;20465;-63
2023/06/30 12:56:50;;;;;;;6.07;2.40;;;;;;;;;;5112230;27;20527;-63
2023/06/30 12:59:20;;;;;;;3.83;2.33;;;;;;;;;;5120172;28;20836;-64
2023/06/30 13:01:46;;;;;;;3.47;2.57;;;;;;;;;;5121592;28;20517;-63
2023/06/30 13:04:13;;;;;;;5.87;2.37;;;;;;;;;;5124098;27;20525;-64
2023/06/30 13:06:41;;;;;;;6.00;2.27;;;;;;;;;;5109509;28;20604;-64
2023/06/30 13:09:07;;;;;;;4.10;2.53;;;;;;;;;;5119373;27;21079;-63
2023/06/30 13:11:35;;;;;;;3.80;2.70;;;;;;;;;;5113931;28;20487;-65
2023/06/30 13:14:03;;;;;;;3.30;2.33;;;;;;;;;;5120131;28;20473;-65
2023/06/30 13:16:30;;;;;;;2.07;1.80;;;;;;;;;;5111645;27;20501;-64
2023/06/30 13:18:57;;;;;;;4.70;1.67;;;;;;;;;;5117417;28;20530;-65
2023/06/30 13:21:23;;;;;;;5.30;1.80;;;;;;;;;;5120121;27;20469;-64
2023/06/30 13:23:50;;;;;;;4.13;2.17;;;;;;;;;;5114587;27;20474;-64
2023/06/30 13:26:16;;;;;;;1.93;1.50;;;;;;;;;;5114380;27;20913;-65
2023/06/30 13:28:44;;;;;;;1.97;1.40;;;;;;;;;;5117801;28;20545;-65
2023/06/30 13:31:10;;;;;;;4.20;1.70;;;;;;;;;;5120934;27;20465;-66
2023/06/30 13:33:37;;;;;;;3.83;1.40;;;;;;;;;;5127524;27;20891;-65
2023/06/30 13:36:05;;;;;;;3.03;1.70;;;;;;;;;;5122014;27;20577;-65
2023/06/30 13:38:31;;;;;;;3.20;1.50;;;;;;;;;;5117470;28;20533;-66
2023/06/30 13:40:58;;;;;;;5.13;1.90;;;;;;;;;;5119708;28;20541;-64
2023/06/30 13:43:24;;;;;;;3.67;1.77;;;;;;;;;;5129481;27;20459;-65
2023/06/30 13:45:52;;;;;;;2.73;1.90;;;;;;;;;;5120255;27;20494;-65
2023/06/30 13:48:18;;;;;;;6.80;1.80;;;;;;;;;;5120509;28;20993;-65
2023/06/30 13:50:45;;;;;;;3.33;1.83;;;;;;;;;;5123035;27;20479;-65
2023/06/30 13:53:11;;;;;;;5.00;1.40;;;;;;;;;;5118412;27;20446;-65
2023/06/30 13:55:37;;;;;;;3.30;1.40;;;;;;;;;;5115282;28;20938;-65
2023/06/30 13:58:04;;;;;;;5.73;1.60;;;;;;;;;;5119325;27;20521;-65
2023/06/30 14:08:35;;;;;;;2.40;1.60;;;;;;;;;;5045260;22;20493;-77
2023/06/30 14:11:02;;;;;;;1.53;1.30;;;;;;;;;;5041450;28;20905;-77
2023/06/30 14:13:28;;;;;;;3.07;1.50;;;;;;;;;;5040994;28;20483;-77
2023/06/30 14:15:55;;;;;;;3.30;1.40;;;;;;;;;;5040757;28;20522;-78
2023/06/30 14:18:21;;;;;;;1.97;1.10;;;;;;;;;;5041731;28;21027;-78
2023/06/30 14:20:47;;;;;;;3.33;1.33;;;;;;;;;;5040030;28;20492;-77
2023/06/30 14:23:14;;;;;;;3.37;1.43;;;;;;;;;;5033332;28;20488;-77
2023/06/30 14:25:42;;;;;;;3.87;1.60;;;;;;;;;;5038118;28;20470;-78
2023/06/30 14:28:09;;;;;;;3.90;1.30;;;;;;;;;;5040874;28;20485;-77
2023/06/30 14:30:35;;;;;;;3.80;1.40;;;;;;;;;;5038402;28;20527;-76
2023/06/30 14:33:02;;;;;;;4.53;1.47;;;;;;;;;;5041222;28;20545;-77
2023/06/30 14:35:29;;;;;;;2.93;1.30;;;;;;;;;;5038802;28;20562;-77
2023/06/30 14:37:56;;;;;;;3.70;1.30;;;;;;;;;;5039840;28;20448;-78
2023/06/30 14:40:24;;;;;;;6.10;1.60;;;;;;;;;;5033749;28;21405;-78
2023/06/30 14:42:52;;;;;;;2.73;1.50;;;;;;;;;;5039409;28;20537;-77